sensor_id;sensor_type;location;lat;lon;timestamp;temperature;humidity
6654;DHT22;3363;50.942;7.034;2022-11-20T00:01:20;6.10;75.50
6654;DHT22;3363;50.942;7.034;2022-11-20T00:03:48;6.20;78.20
6654;DHT22;3363;50.942;7.034;2022-11-20T00:06:17;6.40;73.30
6654;DHT22;3363;50.942;7.034;2022-11-20T00:08:45;6.40;76.70
6654;DHT22;3363;50.942;7.034;2022-11-20T00:11:13;6.40;75.00
6654;DHT22;3363;50.942;7.034;2022-11-20T00:13:41;6.40;75.90
6654;DHT22;3363;50.942;7.034;2022-11-20T00:16:09;6.40;75.10
6654;DHT22;3363;50.942;7.034;2022-11-20T00:18:37;6.40;76.10
6654;DHT22;3363;50.942;7.034;2022-11-20T00:21:05;6.40;76.10
6654;DHT22;3363;50.942;7.034;2022-11-20T00:23:34;6.50;75.40
6654;DHT22;3363;50.942;7.034;2022-11-20T00:26:04;6.40;75.90
6654;DHT22;3363;50.942;7.034;2022-11-20T00:28:32;6.40;75.40
6654;DHT22;3363;50.942;7.034;2022-11-20T00:31:02;6.00;68.90
6654;DHT22;3363;50.942;7.034;2022-11-20T00:33:29;6.20;75.50
6654;DHT22;3363;50.942;7.034;2022-11-20T00:35:59;6.40;76.40
6654;DHT22;3363;50.942;7.034;2022-11-20T00:38:27;6.40;74.90
6654;DHT22;3363;50.942;7.034;2022-11-20T00:40:56;6.30;73.40
6654;DHT22;3363;50.942;7.034;2022-11-20T00:43:24;6.30;76.10
6654;DHT22;3363;50.942;7.034;2022-11-20T00:48:22;6.20;75.30
6654;DHT22;3363;50.942;7.034;2022-11-20T00:50:49;6.10;74.70
6654;DHT22;3363;50.942;7.034;2022-11-20T00:53:15;6.00;74.00
6654;DHT22;3363;50.942;7.034;2022-11-20T00:55:42;6.00;76.20
6654;DHT22;3363;50.942;7.034;2022-11-20T00:58:11;6.00;72.90
6654;DHT22;3363;50.942;7.034;2022-11-20T01:00:37;6.10;75.60
6654;DHT22;3363;50.942;7.034;2022-11-20T01:03:04;6.20;76.40
6654;DHT22;3363;50.942;7.034;2022-11-20T01:05:34;6.10;74.50
6654;DHT22;3363;50.942;7.034;2022-11-20T01:08:01;6.10;75.20
6654;DHT22;3363;50.942;7.034;2022-11-20T01:10:28;6.30;76.30
6654;DHT22;3363;50.942;7.034;2022-11-20T01:12:55;6.40;75.30
6654;DHT22;3363;50.942;7.034;2022-11-20T01:15:37;6.50;75.10
6654;DHT22;3363;50.942;7.034;2022-11-20T01:18:04;6.40;73.70
6654;DHT22;3363;50.942;7.034;2022-11-20T01:20:34;6.30;74.50
6654;DHT22;3363;50.942;7.034;2022-11-20T01:23:01;6.40;74.90
6654;DHT22;3363;50.942;7.034;2022-11-20T01:25:28;6.40;74.80
6654;DHT22;3363;50.942;7.034;2022-11-20T01:27:54;6.40;74.70
6654;DHT22;3363;50.942;7.034;2022-11-20T01:30:21;6.40;74.70
6654;DHT22;3363;50.942;7.034;2022-11-20T01:32:49;6.50;74.60
6654;DHT22;3363;50.942;7.034;2022-11-20T01:35:16;6.50;74.40
6654;DHT22;3363;50.942;7.034;2022-11-20T01:37:43;6.50;74.00
6654;DHT22;3363;50.942;7.034;2022-11-20T01:40:11;6.50;74.20
6654;DHT22;3363;50.942;7.034;2022-11-20T01:42:38;6.50;74.20
6654;DHT22;3363;50.942;7.034;2022-11-20T01:46:14;6.50;74.20
6654;DHT22;3363;50.942;7.034;2022-11-20T01:48:48;6.50;74.20
6654;DHT22;3363;50.942;7.034;2022-11-20T01:51:21;6.50;74.20
6654;DHT22;3363;50.942;7.034;2022-11-20T01:53:51;6.50;74.00
6654;DHT22;3363;50.942;7.034;2022-11-20T01:56:19;6.50;73.80
6654;DHT22;3363;50.942;7.034;2022-11-20T01:58:50;6.50;73.70
6654;DHT22;3363;50.942;7.034;2022-11-20T02:01:17;6.50;73.60
6654;DHT22;3363;50.942;7.034;2022-11-20T02:03:46;6.50;72.70
6654;DHT22;3363;50.942;7.034;2022-11-20T02:06:17;6.40;73.30
6654;DHT22;3363;50.942;7.034;2022-11-20T02:08:45;6.50;73.20
6654;DHT22;3363;50.942;7.034;2022-11-20T02:11:12;6.30;73.40
6654;DHT22;3363;50.942;7.034;2022-11-20T02:13:39;6.40;73.20
6654;DHT22;3363;50.942;7.034;2022-11-20T02:16:11;6.30;73.10
6654;DHT22;3363;50.942;7.034;2022-11-20T02:18:39;6.10;73.20
6654;DHT22;3363;50.942;7.034;2022-11-20T02:21:13;6.20;75.60
6654;DHT22;3363;50.942;7.034;2022-11-20T02:24:03;6.30;74.50
6654;DHT22;3363;50.942;7.034;2022-11-20T02:26:32;6.10;70.70
6654;DHT22;3363;50.942;7.034;2022-11-20T02:29:01;5.70;72.60
6654;DHT22;3363;50.942;7.034;2022-11-20T02:31:28;5.90;76.50
6654;DHT22;3363;50.942;7.034;2022-11-20T02:33:56;6.10;75.70
6654;DHT22;3363;50.942;7.034;2022-11-20T02:36:25;6.30;75.30
6654;DHT22;3363;50.942;7.034;2022-11-20T02:38:54;6.20;74.20
6654;DHT22;3363;50.942;7.034;2022-11-20T02:41:21;6.30;74.70
6654;DHT22;3363;50.942;7.034;2022-11-20T02:43:48;6.30;72.50
6654;DHT22;3363;50.942;7.034;2022-11-20T02:46:15;6.30;74.20
6654;DHT22;3363;50.942;7.034;2022-11-20T02:48:42;6.30;74.30
6654;DHT22;3363;50.942;7.034;2022-11-20T02:51:09;6.30;74.10
6654;DHT22;3363;50.942;7.034;2022-11-20T02:53:36;6.30;74.10
6654;DHT22;3363;50.942;7.034;2022-11-20T02:56:05;6.30;73.90
6654;DHT22;3363;50.942;7.034;2022-11-20T02:58:32;6.30;72.90
6654;DHT22;3363;50.942;7.034;2022-11-20T03:00:59;6.30;74.20
6654;DHT22;3363;50.942;7.034;2022-11-20T03:03:25;6.40;74.10
6654;DHT22;3363;50.942;7.034;2022-11-20T03:05:52;6.40;74.00
6654;DHT22;3363;50.942;7.034;2022-11-20T03:08:19;6.40;73.90
6654;DHT22;3363;50.942;7.034;2022-11-20T03:10:46;6.30;73.50
6654;DHT22;3363;50.942;7.034;2022-11-20T03:13:14;6.40;74.10
6654;DHT22;3363;50.942;7.034;2022-11-20T03:15:41;6.40;73.80
6654;DHT22;3363;50.942;7.034;2022-11-20T03:18:08;6.40;74.10
6654;DHT22;3363;50.942;7.034;2022-11-20T03:20:34;6.30;73.70
6654;DHT22;3363;50.942;7.034;2022-11-20T03:23:01;6.40;73.60
6654;DHT22;3363;50.942;7.034;2022-11-20T03:25:28;6.40;73.50
6654;DHT22;3363;50.942;7.034;2022-11-20T03:27:55;6.30;72.80
6654;DHT22;3363;50.942;7.034;2022-11-20T03:30:23;6.20;73.50
6654;DHT22;3363;50.942;7.034;2022-11-20T03:32:52;6.30;73.60
6654;DHT22;3363;50.942;7.034;2022-11-20T03:35:20;6.30;72.80
6654;DHT22;3363;50.942;7.034;2022-11-20T03:37:47;6.30;73.60
6654;DHT22;3363;50.942;7.034;2022-11-20T03:40:14;6.30;73.50
6654;DHT22;3363;50.942;7.034;2022-11-20T03:42:41;6.20;73.10
6654;DHT22;3363;50.942;7.034;2022-11-20T03:45:15;6.30;74.00
6654;DHT22;3363;50.942;7.034;2022-11-20T03:47:43;6.30;73.60
6654;DHT22;3363;50.942;7.034;2022-11-20T03:50:12;6.30;73.50
6654;DHT22;3363;50.942;7.034;2022-11-20T03:52:39;6.30;73.60
6654;DHT22;3363;50.942;7.034;2022-11-20T03:55:07;6.30;73.60
6654;DHT22;3363;50.942;7.034;2022-11-20T03:57:33;6.30;73.50
6654;DHT22;3363;50.942;7.034;2022-11-20T04:00:00;6.30;73.70
6654;DHT22;3363;50.942;7.034;2022-11-20T04:02:27;6.20;73.70
6654;DHT22;3363;50.942;7.034;2022-11-20T04:04:55;6.20;74.40
6654;DHT22;3363;50.942;7.034;2022-11-20T04:07:22;6.20;74.30
6654;DHT22;3363;50.942;7.034;2022-11-20T04:09:49;6.20;74.30
6654;DHT22;3363;50.942;7.034;2022-11-20T04:12:16;6.20;74.60
6654;DHT22;3363;50.942;7.034;2022-11-20T04:14:43;6.20;74.60
6654;DHT22;3363;50.942;7.034;2022-11-20T04:17:10;6.30;74.70
6654;DHT22;3363;50.942;7.034;2022-11-20T04:19:36;6.30;74.50
6654;DHT22;3363;50.942;7.034;2022-11-20T04:22:05;6.30;74.60
6654;DHT22;3363;50.942;7.034;2022-11-20T04:24:31;6.30;74.70
6654;DHT22;3363;50.942;7.034;2022-11-20T04:26:58;6.20;74.90
6654;DHT22;3363;50.942;7.034;2022-11-20T04:29:25;6.20;75.00
6654;DHT22;3363;50.942;7.034;2022-11-20T04:31:52;6.20;75.30
6654;DHT22;3363;50.942;7.034;2022-11-20T04:34:19;6.20;75.40
6654;DHT22;3363;50.942;7.034;2022-11-20T04:36:45;6.20;75.50
6654;DHT22;3363;50.942;7.034;2022-11-20T04:39:14;6.20;75.40
6654;DHT22;3363;50.942;7.034;2022-11-20T04:41:42;6.20;75.50
6654;DHT22;3363;50.942;7.034;2022-11-20T04:44:09;6.20;75.70
6654;DHT22;3363;50.942;7.034;2022-11-20T04:46:38;6.20;75.70
6654;DHT22;3363;50.942;7.034;2022-11-20T04:49:05;6.20;75.60
6654;DHT22;3363;50.942;7.034;2022-11-20T04:51:32;6.20;75.80
6654;DHT22;3363;50.942;7.034;2022-11-20T04:54:00;6.20;75.80
6654;DHT22;3363;50.942;7.034;2022-11-20T04:56:28;6.10;76.10
6654;DHT22;3363;50.942;7.034;2022-11-20T04:58:55;6.10;76.10
6654;DHT22;3363;50.942;7.034;2022-11-20T05:01:23;6.10;76.10
6654;DHT22;3363;50.942;7.034;2022-11-20T05:03:50;6.10;76.20
6654;DHT22;3363;50.942;7.034;2022-11-20T05:06:19;6.10;76.20
6654;DHT22;3363;50.942;7.034;2022-11-20T05:08:46;6.20;76.40
6654;DHT22;3363;50.942;7.034;2022-11-20T05:11:14;6.10;76.30
6654;DHT22;3363;50.942;7.034;2022-11-20T05:13:43;6.10;76.50
6654;DHT22;3363;50.942;7.034;2022-11-20T05:16:11;6.10;76.50
6654;DHT22;3363;50.942;7.034;2022-11-20T05:18:39;6.00;76.20
6654;DHT22;3363;50.942;7.034;2022-11-20T05:21:07;6.00;77.10
6654;DHT22;3363;50.942;7.034;2022-11-20T05:23:34;6.00;77.10
6654;DHT22;3363;50.942;7.034;2022-11-20T05:26:02;6.10;77.20
6654;DHT22;3363;50.942;7.034;2022-11-20T05:28:30;6.10;77.20
6654;DHT22;3363;50.942;7.034;2022-11-20T05:31:05;6.10;77.10
6654;DHT22;3363;50.942;7.034;2022-11-20T05:33:33;6.10;77.10
6654;DHT22;3363;50.942;7.034;2022-11-20T05:36:00;6.10;77.20
6654;DHT22;3363;50.942;7.034;2022-11-20T05:38:27;6.10;77.30
6654;DHT22;3363;50.942;7.034;2022-11-20T05:40:54;6.10;77.50
6654;DHT22;3363;50.942;7.034;2022-11-20T05:43:20;6.10;77.70
6654;DHT22;3363;50.942;7.034;2022-11-20T05:45:52;6.10;77.50
6654;DHT22;3363;50.942;7.034;2022-11-20T05:48:20;6.10;77.50
6654;DHT22;3363;50.942;7.034;2022-11-20T05:50:47;6.10;77.40
6654;DHT22;3363;50.942;7.034;2022-11-20T05:53:14;6.10;77.00
6654;DHT22;3363;50.942;7.034;2022-11-20T05:55:41;6.10;77.90
6654;DHT22;3363;50.942;7.034;2022-11-20T05:58:08;6.10;77.90
6654;DHT22;3363;50.942;7.034;2022-11-20T06:00:35;6.10;77.90
6654;DHT22;3363;50.942;7.034;2022-11-20T06:03:02;6.10;77.70
6654;DHT22;3363;50.942;7.034;2022-11-20T06:05:30;6.10;77.90
6654;DHT22;3363;50.942;7.034;2022-11-20T06:07:57;6.10;77.90
6654;DHT22;3363;50.942;7.034;2022-11-20T06:10:24;6.10;78.00
6654;DHT22;3363;50.942;7.034;2022-11-20T06:12:51;6.10;78.10
6654;DHT22;3363;50.942;7.034;2022-11-20T06:15:17;6.10;78.00
6654;DHT22;3363;50.942;7.034;2022-11-20T06:17:44;6.10;78.00
6654;DHT22;3363;50.942;7.034;2022-11-20T06:20:11;6.10;77.60
6654;DHT22;3363;50.942;7.034;2022-11-20T06:22:39;6.10;77.70
6654;DHT22;3363;50.942;7.034;2022-11-20T06:25:06;6.10;77.90
6654;DHT22;3363;50.942;7.034;2022-11-20T06:27:33;6.10;78.00
6654;DHT22;3363;50.942;7.034;2022-11-20T06:30:00;6.10;78.30
6654;DHT22;3363;50.942;7.034;2022-11-20T06:32:27;6.10;78.70
6654;DHT22;3363;50.942;7.034;2022-11-20T06:34:54;6.10;78.20
6654;DHT22;3363;50.942;7.034;2022-11-20T06:37:21;6.10;78.10
6654;DHT22;3363;50.942;7.034;2022-11-20T06:39:49;6.00;78.20
6654;DHT22;3363;50.942;7.034;2022-11-20T06:42:17;6.00;78.50
6654;DHT22;3363;50.942;7.034;2022-11-20T06:44:44;6.00;78.60
6654;DHT22;3363;50.942;7.034;2022-11-20T06:47:10;6.00;78.90
6654;DHT22;3363;50.942;7.034;2022-11-20T06:49:37;6.00;78.80
6654;DHT22;3363;50.942;7.034;2022-11-20T06:52:04;6.00;78.80
6654;DHT22;3363;50.942;7.034;2022-11-20T06:54:31;6.00;78.90
6654;DHT22;3363;50.942;7.034;2022-11-20T06:56:59;6.00;78.80
6654;DHT22;3363;50.942;7.034;2022-11-20T06:59:26;6.00;78.60
6654;DHT22;3363;50.942;7.034;2022-11-20T07:01:53;6.00;78.70
6654;DHT22;3363;50.942;7.034;2022-11-20T07:04:20;6.00;78.70
6654;DHT22;3363;50.942;7.034;2022-11-20T07:06:46;6.00;79.00
6654;DHT22;3363;50.942;7.034;2022-11-20T07:09:14;6.00;79.10
6654;DHT22;3363;50.942;7.034;2022-11-20T07:11:41;6.00;79.00
6654;DHT22;3363;50.942;7.034;2022-11-20T07:14:10;6.00;79.20
6654;DHT22;3363;50.942;7.034;2022-11-20T07:16:36;6.00;79.60
6654;DHT22;3363;50.942;7.034;2022-11-20T07:19:03;6.00;80.10
6654;DHT22;3363;50.942;7.034;2022-11-20T07:21:30;6.00;79.60
6654;DHT22;3363;50.942;7.034;2022-11-20T07:23:57;6.00;79.50
6654;DHT22;3363;50.942;7.034;2022-11-20T07:26:24;6.00;79.70
6654;DHT22;3363;50.942;7.034;2022-11-20T07:28:50;6.00;79.60
6654;DHT22;3363;50.942;7.034;2022-11-20T07:31:19;6.00;79.80
6654;DHT22;3363;50.942;7.034;2022-11-20T07:33:45;6.00;80.00
6654;DHT22;3363;50.942;7.034;2022-11-20T07:36:12;6.00;79.80
6654;DHT22;3363;50.942;7.034;2022-11-20T07:38:39;6.10;79.80
6654;DHT22;3363;50.942;7.034;2022-11-20T07:41:06;6.00;79.60
6654;DHT22;3363;50.942;7.034;2022-11-20T07:43:33;6.00;79.70
6654;DHT22;3363;50.942;7.034;2022-11-20T07:46:00;6.00;80.00
6654;DHT22;3363;50.942;7.034;2022-11-20T07:48:28;6.00;80.20
6654;DHT22;3363;50.942;7.034;2022-11-20T07:50:55;6.00;80.30
6654;DHT22;3363;50.942;7.034;2022-11-20T07:53:22;6.00;80.70
6654;DHT22;3363;50.942;7.034;2022-11-20T07:55:49;6.00;80.30
6654;DHT22;3363;50.942;7.034;2022-11-20T07:58:17;6.10;80.30
6654;DHT22;3363;50.942;7.034;2022-11-20T08:00:44;6.10;80.10
6654;DHT22;3363;50.942;7.034;2022-11-20T08:03:11;6.10;80.20
6654;DHT22;3363;50.942;7.034;2022-11-20T08:05:40;6.10;80.00
6654;DHT22;3363;50.942;7.034;2022-11-20T08:08:07;6.10;79.70
6654;DHT22;3363;50.942;7.034;2022-11-20T08:10:34;6.10;79.50
6654;DHT22;3363;50.942;7.034;2022-11-20T08:13:01;6.10;79.60
6654;DHT22;3363;50.942;7.034;2022-11-20T08:15:48;6.10;79.30
6654;DHT22;3363;50.942;7.034;2022-11-20T08:18:16;6.10;78.80
6654;DHT22;3363;50.942;7.034;2022-11-20T08:20:45;6.00;79.40
6654;DHT22;3363;50.942;7.034;2022-11-20T08:23:12;6.00;79.50
6654;DHT22;3363;50.942;7.034;2022-11-20T08:25:39;6.00;80.10
6654;DHT22;3363;50.942;7.034;2022-11-20T08:28:07;6.10;79.40
6654;DHT22;3363;50.942;7.034;2022-11-20T08:30:35;6.10;79.80
6654;DHT22;3363;50.942;7.034;2022-11-20T08:33:04;6.10;79.70
6654;DHT22;3363;50.942;7.034;2022-11-20T08:35:33;6.10;79.10
6654;DHT22;3363;50.942;7.034;2022-11-20T08:38:02;6.10;78.80
6654;DHT22;3363;50.942;7.034;2022-11-20T08:40:28;6.10;78.90
6654;DHT22;3363;50.942;7.034;2022-11-20T08:42:55;6.10;79.00
6654;DHT22;3363;50.942;7.034;2022-11-20T08:45:22;6.10;79.20
6654;DHT22;3363;50.942;7.034;2022-11-20T08:47:49;6.10;79.40
6654;DHT22;3363;50.942;7.034;2022-11-20T08:50:17;6.20;79.50
6654;DHT22;3363;50.942;7.034;2022-11-20T08:52:44;6.10;78.40
6654;DHT22;3363;50.942;7.034;2022-11-20T08:55:12;6.10;79.00
6654;DHT22;3363;50.942;7.034;2022-11-20T08:57:39;6.20;78.90
6654;DHT22;3363;50.942;7.034;2022-11-20T09:00:07;6.10;78.40
6654;DHT22;3363;50.942;7.034;2022-11-20T09:02:34;6.20;79.10
6654;DHT22;3363;50.942;7.034;2022-11-20T09:05:01;6.10;79.30
6654;DHT22;3363;50.942;7.034;2022-11-20T09:07:28;6.20;79.40
6654;DHT22;3363;50.942;7.034;2022-11-20T09:09:55;6.20;79.00
6654;DHT22;3363;50.942;7.034;2022-11-20T09:12:23;6.20;79.20
6654;DHT22;3363;50.942;7.034;2022-11-20T09:14:50;6.20;79.10
6654;DHT22;3363;50.942;7.034;2022-11-20T09:17:17;6.20;78.90
6654;DHT22;3363;50.942;7.034;2022-11-20T09:19:46;6.20;78.80
6654;DHT22;3363;50.942;7.034;2022-11-20T09:22:13;6.30;78.50
6654;DHT22;3363;50.942;7.034;2022-11-20T09:24:40;6.30;78.40
6654;DHT22;3363;50.942;7.034;2022-11-20T09:27:08;6.30;78.30
6654;DHT22;3363;50.942;7.034;2022-11-20T09:29:36;6.00;78.10
6654;DHT22;3363;50.942;7.034;2022-11-20T09:32:03;6.10;79.40
6654;DHT22;3363;50.942;7.034;2022-11-20T09:34:30;6.20;79.00
6654;DHT22;3363;50.942;7.034;2022-11-20T09:36:57;6.00;77.90
6654;DHT22;3363;50.942;7.034;2022-11-20T09:39:24;6.00;79.90
6654;DHT22;3363;50.942;7.034;2022-11-20T09:42:10;6.10;80.00
6654;DHT22;3363;50.942;7.034;2022-11-20T09:44:52;6.10;79.30
6654;DHT22;3363;50.942;7.034;2022-11-20T09:47:31;6.20;80.30
6654;DHT22;3363;50.942;7.034;2022-11-20T09:50:17;6.30;79.60
6654;DHT22;3363;50.942;7.034;2022-11-20T09:52:54;6.50;78.50
6654;DHT22;3363;50.942;7.034;2022-11-20T09:55:23;6.40;79.80
6654;DHT22;3363;50.942;7.034;2022-11-20T09:57:51;6.30;77.80
6654;DHT22;3363;50.942;7.034;2022-11-20T10:00:20;6.10;80.70
6654;DHT22;3363;50.942;7.034;2022-11-20T10:02:54;6.10;82.60
6654;DHT22;3363;50.942;7.034;2022-11-20T10:05:25;6.10;80.80
6654;DHT22;3363;50.942;7.034;2022-11-20T10:07:59;5.90;79.10
6654;DHT22;3363;50.942;7.034;2022-11-20T10:10:33;5.90;80.60
6654;DHT22;3363;50.942;7.034;2022-11-20T10:13:17;6.00;79.90
6654;DHT22;3363;50.942;7.034;2022-11-20T10:15:57;5.80;78.60
6654;DHT22;3363;50.942;7.034;2022-11-20T10:18:38;5.90;79.00
6654;DHT22;3363;50.942;7.034;2022-11-20T10:21:14;5.80;82.50
6654;DHT22;3363;50.942;7.034;2022-11-20T10:23:58;5.80;81.10
6654;DHT22;3363;50.942;7.034;2022-11-20T10:26:29;5.70;84.00
6654;DHT22;3363;50.942;7.034;2022-11-20T10:29:07;5.60;83.60
6654;DHT22;3363;50.942;7.034;2022-11-20T10:31:39;5.60;90.40
6654;DHT22;3363;50.942;7.034;2022-11-20T10:34:15;5.70;86.40
6654;DHT22;3363;50.942;7.034;2022-11-20T10:36:46;5.70;82.90
6654;DHT22;3363;50.942;7.034;2022-11-20T10:39:18;5.80;83.10
6654;DHT22;3363;50.942;7.034;2022-11-20T10:41:49;5.70;85.10
6654;DHT22;3363;50.942;7.034;2022-11-20T10:44:19;5.70;86.00
6654;DHT22;3363;50.942;7.034;2022-11-20T10:47:13;5.90;84.60
6654;DHT22;3363;50.942;7.034;2022-11-20T10:49:41;6.00;84.60
6654;DHT22;3363;50.942;7.034;2022-11-20T10:52:13;6.10;83.60
6654;DHT22;3363;50.942;7.034;2022-11-20T10:54:47;6.00;85.20
6654;DHT22;3363;50.942;7.034;2022-11-20T10:57:24;6.00;84.90
6654;DHT22;3363;50.942;7.034;2022-11-20T11:00:02;6.00;84.70
6654;DHT22;3363;50.942;7.034;2022-11-20T11:02:35;6.10;84.60
6654;DHT22;3363;50.942;7.034;2022-11-20T11:05:14;6.10;84.10
6654;DHT22;3363;50.942;7.034;2022-11-20T11:07:45;6.20;85.30
6654;DHT22;3363;50.942;7.034;2022-11-20T11:10:16;6.10;84.50
6654;DHT22;3363;50.942;7.034;2022-11-20T11:12:45;6.00;87.30
6654;DHT22;3363;50.942;7.034;2022-11-20T11:15:24;6.00;86.70
6654;DHT22;3363;50.942;7.034;2022-11-20T11:17:53;6.00;86.60
6654;DHT22;3363;50.942;7.034;2022-11-20T11:20:21;6.00;88.50
6654;DHT22;3363;50.942;7.034;2022-11-20T11:22:50;6.00;89.20
6654;DHT22;3363;50.942;7.034;2022-11-20T11:25:24;6.00;88.90
6654;DHT22;3363;50.942;7.034;2022-11-20T11:27:52;6.00;87.40
6654;DHT22;3363;50.942;7.034;2022-11-20T11:30:21;6.10;88.30
6654;DHT22;3363;50.942;7.034;2022-11-20T11:32:48;6.10;87.10
6654;DHT22;3363;50.942;7.034;2022-11-20T11:35:22;6.10;86.80
6654;DHT22;3363;50.942;7.034;2022-11-20T11:37:50;6.30;85.30
6654;DHT22;3363;50.942;7.034;2022-11-20T11:40:18;6.30;84.70
6654;DHT22;3363;50.942;7.034;2022-11-20T11:42:50;6.30;84.70
6654;DHT22;3363;50.942;7.034;2022-11-20T11:45:20;6.30;85.00
6654;DHT22;3363;50.942;7.034;2022-11-20T11:47:47;6.30;84.40
6654;DHT22;3363;50.942;7.034;2022-11-20T11:50:17;6.30;84.10
6654;DHT22;3363;50.942;7.034;2022-11-20T11:52:51;6.30;84.50
6654;DHT22;3363;50.942;7.034;2022-11-20T11:55:27;6.30;88.40
6654;DHT22;3363;50.942;7.034;2022-11-20T11:58:01;6.20;88.20
6654;DHT22;3363;50.942;7.034;2022-11-20T12:00:32;6.20;84.60
6654;DHT22;3363;50.942;7.034;2022-11-20T12:03:06;5.90;92.30
6654;DHT22;3363;50.942;7.034;2022-11-20T12:05:40;6.10;88.70
6654;DHT22;3363;50.942;7.034;2022-11-20T12:08:15;5.90;90.00
6654;DHT22;3363;50.942;7.034;2022-11-20T12:10:46;5.90;91.90
6654;DHT22;3363;50.942;7.034;2022-11-20T12:13:21;6.00;93.50
6654;DHT22;3363;50.942;7.034;2022-11-20T12:15:51;6.10;91.80
6654;DHT22;3363;50.942;7.034;2022-11-20T12:18:20;6.10;91.10
6654;DHT22;3363;50.942;7.034;2022-11-20T12:20:56;6.20;90.30
6654;DHT22;3363;50.942;7.034;2022-11-20T12:23:31;6.30;90.00
6654;DHT22;3363;50.942;7.034;2022-11-20T12:26:02;6.30;88.70
6654;DHT22;3363;50.942;7.034;2022-11-20T12:28:48;6.30;90.30
6654;DHT22;3363;50.942;7.034;2022-11-20T12:31:39;6.20;90.00
6654;DHT22;3363;50.942;7.034;2022-11-20T12:34:27;6.30;89.80
6654;DHT22;3363;50.942;7.034;2022-11-20T12:37:08;6.30;90.70
6654;DHT22;3363;50.942;7.034;2022-11-20T12:39:42;6.20;90.70
6654;DHT22;3363;50.942;7.034;2022-11-20T12:42:33;6.20;91.20
6654;DHT22;3363;50.942;7.034;2022-11-20T12:45:33;6.30;90.30
6654;DHT22;3363;50.942;7.034;2022-11-20T12:48:30;6.30;89.60
6654;DHT22;3363;50.942;7.034;2022-11-20T12:51:13;6.40;88.20
6654;DHT22;3363;50.942;7.034;2022-11-20T12:53:52;6.50;89.50
6654;DHT22;3363;50.942;7.034;2022-11-20T12:56:35;6.40;90.10
6654;DHT22;3363;50.942;7.034;2022-11-20T12:59:29;6.40;88.10
6654;DHT22;3363;50.942;7.034;2022-11-20T13:02:03;6.40;89.30
6654;DHT22;3363;50.942;7.034;2022-11-20T13:04:49;6.40;88.30
6654;DHT22;3363;50.942;7.034;2022-11-20T13:07:21;6.50;89.60
6654;DHT22;3363;50.942;7.034;2022-11-20T13:09:51;6.50;88.70
6654;DHT22;3363;50.942;7.034;2022-11-20T13:12:25;6.50;91.30
6654;DHT22;3363;50.942;7.034;2022-11-20T13:15:00;6.50;88.70
6654;DHT22;3363;50.942;7.034;2022-11-20T13:17:34;6.50;88.80
6654;DHT22;3363;50.942;7.034;2022-11-20T13:20:05;6.50;88.30
6654;DHT22;3363;50.942;7.034;2022-11-20T13:22:44;6.60;88.60
6654;DHT22;3363;50.942;7.034;2022-11-20T13:25:22;6.60;87.50
6654;DHT22;3363;50.942;7.034;2022-11-20T13:27:51;6.50;90.00
6654;DHT22;3363;50.942;7.034;2022-11-20T13:30:21;6.50;88.50
6654;DHT22;3363;50.942;7.034;2022-11-20T13:32:52;6.50;90.20
6654;DHT22;3363;50.942;7.034;2022-11-20T13:35:31;6.60;87.80
6654;DHT22;3363;50.942;7.034;2022-11-20T13:38:06;6.60;87.90
6654;DHT22;3363;50.942;7.034;2022-11-20T13:40:36;6.70;89.40
6654;DHT22;3363;50.942;7.034;2022-11-20T13:43:19;6.70;87.90
6654;DHT22;3363;50.942;7.034;2022-11-20T13:45:59;6.70;86.50
6654;DHT22;3363;50.942;7.034;2022-11-20T13:48:29;6.60;86.60
6654;DHT22;3363;50.942;7.034;2022-11-20T13:51:07;6.70;89.60
6654;DHT22;3363;50.942;7.034;2022-11-20T13:53:50;6.60;89.20
6654;DHT22;3363;50.942;7.034;2022-11-20T13:56:24;6.70;87.70
6654;DHT22;3363;50.942;7.034;2022-11-20T13:58:59;6.60;88.70
6654;DHT22;3363;50.942;7.034;2022-11-20T14:01:30;6.60;88.20
6654;DHT22;3363;50.942;7.034;2022-11-20T14:03:58;6.60;89.40
6654;DHT22;3363;50.942;7.034;2022-11-20T14:06:27;6.60;88.00
6654;DHT22;3363;50.942;7.034;2022-11-20T14:08:55;6.70;89.30
6654;DHT22;3363;50.942;7.034;2022-11-20T14:11:24;6.60;92.20
6654;DHT22;3363;50.942;7.034;2022-11-20T14:13:58;6.60;91.40
6654;DHT22;3363;50.942;7.034;2022-11-20T14:16:29;6.60;91.10
6654;DHT22;3363;50.942;7.034;2022-11-20T14:19:27;6.60;91.60
6654;DHT22;3363;50.942;7.034;2022-11-20T14:22:08;6.60;93.60
6654;DHT22;3363;50.942;7.034;2022-11-20T14:24:35;6.50;93.90
6654;DHT22;3363;50.942;7.034;2022-11-20T14:27:02;6.50;93.50
6654;DHT22;3363;50.942;7.034;2022-11-20T14:29:34;6.50;94.30
6654;DHT22;3363;50.942;7.034;2022-11-20T14:32:02;6.60;92.30
6654;DHT22;3363;50.942;7.034;2022-11-20T14:34:32;6.60;94.50
6654;DHT22;3363;50.942;7.034;2022-11-20T14:37:00;6.60;93.80
6654;DHT22;3363;50.942;7.034;2022-11-20T14:39:31;6.60;94.90
6654;DHT22;3363;50.942;7.034;2022-11-20T14:41:59;6.60;96.30
6654;DHT22;3363;50.942;7.034;2022-11-20T14:44:31;6.60;97.50
6654;DHT22;3363;50.942;7.034;2022-11-20T14:47:00;6.60;94.20
6654;DHT22;3363;50.942;7.034;2022-11-20T14:49:30;6.60;93.80
6654;DHT22;3363;50.942;7.034;2022-11-20T14:52:01;6.70;94.30
6654;DHT22;3363;50.942;7.034;2022-11-20T14:54:29;6.70;93.40
6654;DHT22;3363;50.942;7.034;2022-11-20T14:56:57;6.70;94.20
6654;DHT22;3363;50.942;7.034;2022-11-20T14:59:25;6.70;93.90
6654;DHT22;3363;50.942;7.034;2022-11-20T15:01:59;6.60;94.20
6654;DHT22;3363;50.942;7.034;2022-11-20T15:04:26;6.70;93.60
6654;DHT22;3363;50.942;7.034;2022-11-20T15:06:55;6.70;93.10
6654;DHT22;3363;50.942;7.034;2022-11-20T15:09:23;6.70;93.00
6654;DHT22;3363;50.942;7.034;2022-11-20T15:11:55;6.70;94.80
6654;DHT22;3363;50.942;7.034;2022-11-20T15:14:23;6.60;97.40
6654;DHT22;3363;50.942;7.034;2022-11-20T15:16:50;6.60;99.90
6654;DHT22;3363;50.942;7.034;2022-11-20T15:19:20;6.60;97.50
6654;DHT22;3363;50.942;7.034;2022-11-20T15:21:48;6.70;98.70
6654;DHT22;3363;50.942;7.034;2022-11-20T15:24:14;6.60;96.70
6654;DHT22;3363;50.942;7.034;2022-11-20T15:26:42;6.70;95.90
6654;DHT22;3363;50.942;7.034;2022-11-20T15:29:10;6.70;99.90
6654;DHT22;3363;50.942;7.034;2022-11-20T15:31:38;6.60;99.90
6654;DHT22;3363;50.942;7.034;2022-11-20T15:34:10;6.60;99.90
6654;DHT22;3363;50.942;7.034;2022-11-20T15:36:39;6.50;99.90
6654;DHT22;3363;50.942;7.034;2022-11-20T15:39:06;6.60;99.90
6654;DHT22;3363;50.942;7.034;2022-11-20T15:41:33;6.50;99.90
6654;DHT22;3363;50.942;7.034;2022-11-20T15:44:00;6.50;99.90
6654;DHT22;3363;50.942;7.034;2022-11-20T15:46:29;6.50;99.90
6654;DHT22;3363;50.942;7.034;2022-11-20T15:48:59;6.50;99.90
6654;DHT22;3363;50.942;7.034;2022-11-20T15:51:28;6.50;99.90
6654;DHT22;3363;50.942;7.034;2022-11-20T15:53:58;6.50;99.90
6654;DHT22;3363;50.942;7.034;2022-11-20T15:56:25;6.60;99.90
6654;DHT22;3363;50.942;7.034;2022-11-20T15:58:52;6.50;99.90
6654;DHT22;3363;50.942;7.034;2022-11-20T16:01:21;6.60;99.90
6654;DHT22;3363;50.942;7.034;2022-11-20T16:03:48;6.60;99.90
6654;DHT22;3363;50.942;7.034;2022-11-20T16:06:15;6.50;99.90
6654;DHT22;3363;50.942;7.034;2022-11-20T16:08:42;6.50;99.90
6654;DHT22;3363;50.942;7.034;2022-11-20T16:11:12;6.50;99.90
6654;DHT22;3363;50.942;7.034;2022-11-20T16:13:40;6.50;99.90
6654;DHT22;3363;50.942;7.034;2022-11-20T16:16:27;6.50;99.90
6654;DHT22;3363;50.942;7.034;2022-11-20T16:18:55;6.50;99.90
6654;DHT22;3363;50.942;7.034;2022-11-20T16:21:22;6.50;99.90
6654;DHT22;3363;50.942;7.034;2022-11-20T16:23:53;6.60;99.90
6654;DHT22;3363;50.942;7.034;2022-11-20T16:26:21;6.50;99.90
6654;DHT22;3363;50.942;7.034;2022-11-20T16:28:48;6.60;99.90
6654;DHT22;3363;50.942;7.034;2022-11-20T16:31:16;6.60;99.90
6654;DHT22;3363;50.942;7.034;2022-11-20T16:33:49;6.60;99.90
6654;DHT22;3363;50.942;7.034;2022-11-20T16:36:16;6.50;99.90
6654;DHT22;3363;50.942;7.034;2022-11-20T16:38:44;6.60;99.90